Date,TemperatureHighF,TemperatureAvgF,TemperatureLowF,DewpointHighF,DewpointAvgF,DewpointLowF,HumidityHigh,HumidityAvg,HumidityLow,PressureMaxIn,PressureMinIn,WindSpeedMaxMPH,WindSpeedAvgMPH,GustSpeedMaxMPH,PrecipitationSumIn
2013-1-1,29.0,10.2,-2.0,14.0,3.3,-5.0,88,75,40,0.00,40.00,4,1,7,0.00
2013-1-2,31.0,15.2,2.0,13.0,7.5,-3.0,88,73,41,0.00,40.00,7,-5,9,0.00
2013-1-3,29.0,7.6,-5.0,11.0,-0.7,-9.0,87,71,32,0.00,40.00,6,2,7,0.00
2013-1-4,31.0,8.9,-3.0,7.0,-0.5,-6.0,87,69,31,0.00,40.00,4,1,6,0.00
2013-1-5,31.0,8.1,-6.0,11.0,-0.2,-10.0,86,72,33,0.00,40.00,5,1,7,0.00
2013-1-6,27.0,10.6,-4.0,15.0,3.4,-7.0,88,74,43,0.00,40.00,6,1,7,0.00
2013-1-7,36.0,15.2,1.0,14.0,5.9,-2.0,89,70,33,0.00,40.00,6,1,7,0.00
2013-1-8,40.0,18.1,5.0,14.0,9.1,2.0,90,71,30,0.00,40.00,4,1,6,0.00
2013-1-9,43.0,19.6,7.0,19.0,11.4,5.0,91,74,34,0.00,40.00,5,1,7,0.00
2013-1-10,42.0,20.8,7.0,27.0,14.3,5.0,92,77,44,0.00,40.00,17,2,27,0.00
2013-1-11,41.0,24.6,10.0,28.0,13.9,0.0,96,65,43,0.00,40.00,32,11,40,0.00
2013-1-12,24.0,9.9,-1.0,5.0,0.2,-6.0,85,66,38,0.00,40.00,6,1,7,0.00
2013-1-13,20.0,7.3,-1.0,7.0,-0.5,-6.0,86,71,50,0.00,40.00,13,2,18,0.00
2013-1-14,20.0,2.0,-11.0,2.0,-7.9,-15.0,82,65,34,0.00,40.00,7,2,12,0.00
2013-1-15,18.0,2.8,-12.0,5.0,-6.2,-17.0,84,67,40,0.00,40.00,5,1,7,0.00
2013-1-16,35.0,13.5,0.0,9.0,2.9,-4.0,85,65,33,0.00,40.00,6,1,7,0.00
2013-1-17,39.0,15.6,2.0,14.0,6.7,-1.0,89,71,34,0.00,40.00,4,-6,6,0.00
2013-1-18,40.0,15.2,2.0,15.0,7.3,-1.0,90,74,34,0.00,40.00,4,1,6,0.00
2013-1-19,42.0,17.9,3.0,16.0,8.9,1.0,91,71,31,0.00,40.00,4,1,6,0.00
2013-1-20,42.0,17.1,2.0,16.0,7.9,0.0,90,71,29,0.00,40.00,3,1,6,0.00
2013-1-21,43.0,19.0,3.0,17.0,8.7,1.0,90,69,29,0.00,40.00,4,1,7,0.00
2013-1-22,44.0,18.4,4.0,17.0,8.5,1.0,91,70,26,0.00,40.00,5,1,7,0.00
2013-1-23,36.0,18.7,4.0,16.0,9.4,2.0,91,70,36,0.00,40.00,4,1,6,0.00
2013-1-24,23.0,17.0,14.0,18.0,13.6,10.0,88,86,81,0.00,40.00,5,2,6,0.00
2013-1-25,40.0,36.7,34.0,33.0,31.7,31.0,93,82,72,0.00,40.00,4,1,5,0.00
2013-1-26,42.0,36.3,33.0,38.0,33.9,32.0,97,91,72,0.00,40.00,4,1,6,0.00
2013-1-27,49.0,36.5,33.0,39.0,32.9,29.0,96,88,51,0.00,40.00,6,2,12,0.00
2013-1-28,37.0,31.2,23.0,35.0,29.7,17.0,95,94,79,0.00,40.00,16,5,20,0.00
2013-1-29,31.0,18.4,6.0,17.0,10.4,3.0,89,72,43,0.00,40.00,9,-5,14,0.00
2013-1-30,27.0,18.3,6.0,20.0,14.3,4.0,90,84,65,0.00,40.00,5,2,7,0.00
2013-1-31,38.0,26.3,11.0,26.0,20.1,9.0,92,79,52,0.00,40.00,4,1,6,0.00
2013-2-1,47.0,29.5,17.0,26.0,21.5,16.0,93,75,36,0.00,40.00,5,2,7,0.00
2013-2-2,46.0,27.0,14.0,24.0,18.2,12.0,92,73,35,0.00,40.00,7,2,9,0.00
2013-2-3,38.0,25.9,18.0,23.0,18.0,16.0,92,74,44,0.00,40.00,4,1,6,0.00
2013-2-4,45.0,26.5,13.0,22.0,16.8,11.0,91,70,35,0.00,40.00,4,2,7,0.00
2013-2-5,49.0,28.7,14.0,22.0,17.5,12.0,92,67,28,0.00,40.00,5,1,6,0.00
2013-2-6,47.0,32.1,20.0,30.0,23.2,18.0,91,72,37,0.00,40.00,9,2,14,0.00
2013-2-7,49.0,30.6,19.0,28.0,19.7,13.0,95,69,24,0.00,40.00,6,2,9,0.00
2013-2-8,49.0,34.1,18.0,25.0,18.8,14.0,87,57,31,0.00,40.00,16,4,23,0.00
2013-2-9,39.0,32.6,24.0,31.0,23.7,13.0,94,70,49,0.00,40.00,14,5,17,0.00
2013-2-10,40.0,27.4,17.0,20.0,15.3,11.0,81,62,32,0.00,40.00,8,2,11,0.00
2013-2-11,31.0,24.5,14.0,22.0,15.5,6.0,90,69,46,0.00,40.00,13,5,17,0.00
2013-2-12,38.0,20.6,6.0,13.0,7.8,2.0,83,60,29,0.00,40.00,5,2,7,0.00
2013-2-13,42.0,30.2,24.0,19.0,16.5,13.0,74,58,37,0.00,40.00,7,2,12,0.00
2013-2-14,44.0,31.6,25.0,29.0,19.2,13.0,87,62,30,0.00,40.00,14,3,21,0.00
2013-2-15,42.0,29.0,20.0,21.0,16.2,13.0,86,61,33,0.00,40.00,14,3,19,0.00
2013-2-16,43.0,24.5,14.0,19.0,15.3,11.0,87,70,34,0.00,40.00,6,2,8,0.00
2013-2-17,52.0,32.0,17.0,22.0,16.7,13.0,90,58,24,0.00,40.00,21,5,29,0.00
2013-2-18,42.0,30.9,22.0,15.0,11.9,6.0,63,46,27,0.00,40.00,10,4,14,0.00
2013-2-19,48.0,28.6,13.0,20.0,13.0,7.0,79,55,27,0.00,40.00,7,-5,9,0.00
2013-2-20,51.0,33.4,20.0,24.0,18.5,15.0,86,58,26,0.00,40.00,15,5,22,0.00
2013-2-21,40.0,33.5,26.0,25.0,18.9,15.0,65,54,42,0.00,40.00,17,9,22,0.00
2013-2-22,38.0,27.5,20.0,21.0,14.3,9.0,82,60,33,0.00,40.00,15,4,20,0.00
2013-2-23,39.0,25.1,15.0,28.0,17.0,9.0,94,72,48,0.00,40.00,17,4,23,0.00
2013-2-24,34.0,25.7,17.0,25.0,18.5,13.0,95,76,51,0.00,40.00,20,4,24,0.00
2013-2-25,41.0,24.5,10.0,16.0,11.2,6.0,86,61,27,0.00,40.00,9,4,12,0.00
2013-2-26,34.0,27.9,22.0,24.0,15.4,11.0,91,60,39,0.00,40.00,17,8,24,0.00
2013-2-27,40.0,24.5,11.0,13.0,9.4,6.0,82,55,28,0.00,40.00,11,4,15,0.00
2013-2-28,41.0,26.9,11.0,22.0,11.5,5.0,81,55,28,0.00,40.00,11,3,17,0.00
2013-3-1,44.0,33.1,26.0,30.0,25.0,22.0,91,73,45,0.00,40.00,5,1,6,0.00
2013-3-2,58.0,36.4,20.0,30.0,23.5,19.0,95,65,27,0.00,40.00,7,2,11,0.00
2013-3-3,51.0,38.1,29.0,36.0,28.2,25.0,93,70,37,0.00,40.00,19,3,26,0.00
2013-3-4,44.0,35.5,22.0,40.0,23.6,7.0,96,67,30,0.00,40.00,24,6,36,0.00
2013-3-5,52.0,31.3,16.0,17.0,10.4,4.0,71,46,15,0.00,40.00,7,3,11,0.00
2013-3-6,66.0,39.9,21.0,24.0,19.9,17.0,85,51,17,0.00,40.00,14,2,16,0.00
2013-3-7,67.0,46.0,29.0,30.0,21.7,14.0,83,45,13,0.00,40.00,11,4,20,0.00
2013-3-8,62.0,43.0,31.0,37.0,27.4,20.0,93,58,23,0.00,40.00,22,6,31,0.00
2013-3-9,38.0,34.8,28.0,36.0,30.0,15.0,96,84,49,0.00,40.00,18,6,30,0.00
2013-3-10,51.0,33.3,20.0,22.0,17.4,13.0,80,56,26,0.00,40.00,9,4,12,0.00
2013-3-11,51.0,37.9,24.0,26.0,21.3,19.0,85,55,28,0.00,40.00,18,4,23,0.00
2013-3-12,59.0,44.1,32.0,33.0,26.6,23.0,85,54,26,0.00,40.00,12,3,15,0.00
2013-3-13,66.0,44.4,26.0,33.0,25.4,20.0,93,55,19,0.00,40.00,7,2,11,0.00
2013-3-14,71.0,47.6,28.0,33.0,25.7,21.0,90,50,18,0.00,40.00,11,2,15,0.00
2013-3-15,68.0,47.9,32.0,35.0,28.0,24.0,89,52,20,0.00,40.00,17,3,24,0.00
2013-3-16,59.0,48.4,40.0,34.0,30.2,27.0,65,50,34,0.00,40.00,18,5,27,0.00
2013-3-17,55.0,42.0,31.0,42.0,25.7,9.0,94,59,23,0.00,40.00,27,8,44,0.00
2013-3-18,52.0,39.9,29.0,22.0,14.4,8.0,65,37,22,0.00,40.00,21,7,31,0.00
2013-3-19,55.0,41.0,29.0,24.0,11.9,-1.0,68,36,11,0.00,40.00,16,4,19,0.00
2013-3-20,51.0,37.3,22.0,31.0,17.9,9.0,72,48,26,0.00,40.00,12,3,19,0.00
2013-3-21,49.0,40.1,30.0,40.0,29.0,17.0,94,67,30,0.00,40.00,19,5,28,0.00
2013-3-22,49.0,35.3,26.0,25.0,18.9,10.0,84,55,20,0.00,40.00,24,8,38,0.00
2013-3-23,35.0,27.9,21.0,17.0,12.3,8.0,61,51,39,0.00,40.00,21,10,30,0.00
2013-3-24,35.0,25.4,18.0,22.0,10.8,6.0,74,54,33,0.00,40.00,20,5,25,0.00
2013-3-25,48.0,29.0,14.0,13.0,6.4,3.0,62,41,18,0.00,40.00,10,4,16,0.00
2013-3-26,62.0,40.2,22.0,24.0,17.9,13.0,73,45,20,0.00,40.00,19,3,27,0.00
2013-3-27,66.0,49.7,32.0,30.0,24.2,17.0,76,40,17,0.00,40.00,16,5,25,0.00
2013-3-28,70.0,50.2,31.0,32.0,25.6,21.0,80,43,20,0.00,40.00,12,3,19,0.00
2013-3-29,67.0,52.2,40.0,34.0,30.7,27.0,66,45,26,0.00,40.00,16,5,26,0.00
2013-3-30,69.0,50.9,33.0,38.0,27.9,-99.9,93,49,18,0.00,40.00,23,4,35,0.00
2013-3-31,70.0,50.2,29.0,33.0,24.8,16.0,88,43,16,0.00,40.00,14,3,18,0.00
2013-4-1,66.0,47.8,32.0,34.0,29.4,22.0,76,51,27,0.00,40.00,23,5,40,0.00
2013-4-2,58.0,47.2,36.0,40.0,33.7,31.0,87,60,41,0.00,40.00,19,6,26,0.00
2013-4-3,67.0,50.3,36.0,37.0,30.2,24.0,83,51,22,0.00,40.00,12,3,22,0.00
2013-4-4,69.0,51.3,32.0,33.0,27.8,24.0,85,45,19,0.00,40.00,14,4,21,0.00
2013-4-5,68.0,52.0,40.0,40.0,32.9,28.0,83,51,24,0.00,40.00,29,7,45,0.00
2013-4-6,65.0,48.9,34.0,40.0,31.8,23.0,95,60,22,0.00,40.00,16,5,33,0.00
2013-4-7,64.0,48.4,35.0,41.0,31.2,20.0,96,60,20,0.00,40.00,24,5,33,0.00
2013-4-8,60.0,47.2,40.0,41.0,30.7,25.0,94,55,27,0.00,40.00,26,6,38,0.00
2013-4-9,41.0,29.0,20.0,40.0,21.7,8.0,96,74,56,0.00,40.00,20,12,29,0.00
2013-4-10,43.0,29.1,16.0,19.0,10.9,6.0,68,47,27,0.00,40.00,15,5,21,0.00
2013-4-11,56.0,41.3,32.0,33.0,26.2,18.0,78,56,31,0.00,40.00,16,3,23,0.00
2013-4-12,66.0,48.1,35.0,40.0,27.4,14.0,93,54,14,0.00,40.00,12,3,21,0.00
2013-4-13,63.0,46.4,30.0,40.0,27.3,22.0,89,53,21,0.00,40.00,31,7,45,0.00
2013-4-14,54.0,44.1,37.0,40.0,19.5,10.0,90,42,20,0.00,40.00,20,9,27,0.00
2013-4-15,44.0,36.2,33.0,37.0,31.1,19.0,96,84,36,0.00,40.00,13,3,19,0.00
2013-4-16,56.0,38.6,28.0,36.0,29.3,20.0,97,73,32,0.00,40.00,26,11,37,0.00
2013-4-17,36.0,28.1,22.0,27.0,18.5,10.0,96,71,41,0.00,40.00,19,10,31,0.00
2013-4-18,40.0,28.9,16.0,16.0,11.0,8.0,78,48,30,0.00,40.00,16,5,22,0.00
2013-4-19,49.0,36.3,21.0,27.0,18.8,15.0,80,52,29,0.00,40.00,17,4,22,0.00
2013-4-20,54.0,43.0,34.0,39.0,32.9,27.0,92,69,41,0.00,40.00,14,4,20,0.00
2013-4-21,62.0,46.8,34.0,41.0,29.2,16.0,96,58,17,0.00,40.00,14,4,23,0.00
2013-4-22,61.0,49.1,40.0,37.0,29.4,21.0,76,50,22,0.00,40.00,24,7,35,0.00
2013-4-23,49.0,39.7,30.0,29.0,18.0,11.0,56,43,24,0.00,40.00,21,11,31,0.00
2013-4-24,60.0,43.3,28.0,21.0,16.8,13.0,62,37,18,0.00,40.00,12,4,19,0.00
2013-4-25,70.0,49.5,29.0,28.0,21.0,17.0,76,39,14,0.00,40.00,18,4,25,0.00
2013-4-26,73.0,53.5,33.0,29.0,23.5,20.0,71,36,15,0.00,40.00,11,4,19,0.00
2013-4-27,77.0,54.7,32.0,30.0,26.8,23.0,77,40,16,0.00,40.00,12,3,17,0.00
2013-4-28,78.0,57.9,34.0,35.0,30.1,27.0,80,41,17,0.00,40.00,16,4,24,0.00
2013-4-29,79.0,62.4,42.0,38.0,33.0,28.0,79,36,19,0.00,40.00,19,6,29,0.00
2013-4-30,74.0,58.1,44.0,41.0,35.3,30.0,78,45,22,0.00,40.00,25,7,41,0.00
2013-5-1,54.0,43.9,34.0,39.0,25.5,15.0,95,55,22,0.00,40.00,19,8,26,0.00
2013-5-2,57.0,42.7,27.0,23.0,17.8,13.0,76,40,19,0.00,40.00,14,5,23,0.00
2013-5-3,71.0,49.2,27.0,29.0,21.8,16.0,84,41,14,0.00,40.00,10,2,12,0.00
2013-5-4,75.0,55.2,33.0,33.0,26.4,23.0,84,39,14,0.00,40.00,24,4,31,0.00
2013-5-5,73.0,60.6,47.0,34.0,29.9,27.0,45,32,18,0.00,40.00,14,8,24,0.00
2013-5-6,72.0,54.5,47.0,46.0,38.3,30.0,92,57,28,0.00,40.00,25,5,35,0.00
2013-5-7,63.0,50.2,43.0,46.0,41.2,32.0,94,74,33,0.00,40.00,20,4,24,0.00
2013-5-8,51.0,45.0,38.0,42.0,40.1,36.0,94,83,59,0.00,40.00,12,3,19,0.00
2013-5-9,70.0,53.5,41.0,42.0,37.1,30.0,93,60,24,0.00,40.00,18,4,27,0.00
2013-5-10,72.0,56.1,38.0,42.0,31.3,-99.9,90,47,21,0.00,40.00,12,3,24,0.00
2013-5-11,76.0,57.2,38.0,41.0,32.3,-99.9,89,46,18,0.00,40.00,16,4,34,0.00
2013-5-12,80.0,61.9,44.0,42.0,37.4,33.0,83,45,19,0.00,40.00,11,2,19,0.00
2013-5-13,73.0,52.6,44.0,44.0,40.3,37.0,84,66,30,0.00,40.00,4,1,6,0.00
2013-6-12,92.0,72.5,47.0,48.0,41.7,35.0,75,37,18,0.00,40.00,14,4,22,0.00
2013-6-13,90.0,74.1,55.0,51.0,43.5,37.0,59,35,22,0.00,40.00,24,6,40,0.00
2013-6-14,89.0,73.0,50.0,47.0,39.9,30.0,76,34,17,0.00,40.00,16,6,24,0.00
2013-6-15,88.0,68.6,44.0,47.0,38.5,29.0,62,35,21,0.00,40.00,22,6,36,0.00
2013-6-16,84.0,69.8,51.0,51.0,45.4,39.0,76,43,29,0.00,40.00,21,6,29,0.00
2013-6-17,90.0,72.4,56.0,54.0,45.6,38.0,64,41,22,0.00,40.00,18,6,26,0.00
2013-6-18,91.0,71.9,50.0,51.0,42.4,29.0,76,39,20,0.00,40.00,17,5,29,0.00
2013-6-19,90.0,70.5,47.0,47.0,37.3,30.0,62,33,16,0.00,40.00,27,7,43,0.00
2013-7-12,88.0,72.8,63.0,61.0,56.7,50.0,91,61,29,0.00,40.00,13,6,24,0.00
2013-7-13,91.0,76.8,63.0,61.0,54.5,48.0,91,54,23,0.00,40.00,12,6,15,0.00
2013-7-14,86.0,70.4,62.0,61.0,54.8,48.0,88,61,31,0.00,40.00,12,4,22,0.00
2013-7-15,94.0,77.0,60.0,57.0,51.6,47.0,86,46,21,0.00,40.00,14,4,27,0.00
2013-7-16,93.0,78.1,61.0,55.0,53.4,51.0,75,44,27,0.00,40.00,9,3,16,0.00
2013-7-17,91.0,75.4,67.0,58.0,55.6,52.0,70,52,29,0.00,40.00,11,5,19,0.00
2013-7-18,94.0,73.2,60.0,60.0,55.2,47.0,91,59,23,0.00,40.00,17,7,29,0.00
2013-7-19,94.0,86.0,77.0,53.0,50.4,48.0,42,30,22,0.00,40.00,20,9,26,0.00
2013-7-20,85.0,73.4,60.0,54.0,51.0,48.0,78,48,32,0.00,40.00,4,1,8,0.00
2013-7-21,96.0,91.3,84.0,49.0,44.8,41.0,22,20,18,0.00,40.00,6,4,12,0.00
2013-7-22,92.0,77.0,64.0,52.0,45.8,38.0,44,34,18,0.00,40.00,7,3,8,0.00
2013-7-23,96.0,91.0,77.0,46.0,40.8,39.0,26,17,14,0.00,40.00,14,8,20,0.00
2013-7-24,86.0,77.2,61.0,53.0,50.7,45.0,55,40,31,0.00,40.00,24,7,35,0.00
2013-7-25,86.0,74.9,60.0,56.0,52.6,49.0,71,47,34,0.00,40.00,9,3,21,0.00
2013-7-26,95.0,78.7,59.0,54.0,49.2,42.0,75,39,20,0.00,40.00,8,4,17,0.00
2013-7-27,92.0,73.1,59.0,57.0,53.1,43.0,67,52,29,0.00,40.00,16,5,27,0.00
2013-8-6,84.0,66.7,55.0,54.0,48.6,43.0,89,56,29,0.00,40.00,18,3,27,0.00
2013-8-7,85.0,67.9,55.0,52.0,46.6,40.0,85,51,24,0.00,40.00,12,2,22,0.00
2013-8-8,85.0,68.4,57.0,50.0,46.4,42.0,68,47,24,0.00,40.00,16,4,29,0.00
2013-8-9,85.0,68.2,54.0,49.0,46.2,41.0,78,49,24,0.00,40.00,14,4,21,0.00
2013-8-10,83.0,67.3,51.0,49.0,44.0,40.0,78,46,25,0.00,40.00,20,7,35,0.00
2013-8-11,86.0,65.5,47.0,47.0,43.7,38.0,91,52,20,0.00,40.00,16,4,28,0.00
2013-8-12,83.0,67.9,51.0,47.0,45.1,42.0,75,47,24,0.00,40.00,7,2,12,0.00